Aviation Digital Data Service (ADDS)

Output produced by METARs form (0855 UTC 19 November 2018)
found at http://www.aviationweather.gov/metar/data/
 
RJSS 190800Z 33004KT 260V070 9999 FEW020 SCT030 BKN050 12/09 Q1013
TAF RJSS 190506Z 1906/2012 13004KT 9999 FEW020 SCT050 
     BECMG 1906/1908 32010KT